Eems Servant — PBTI — position and weather

sailwx.info

Track history (hours):
 
Tides and Currents Weather Stations Pressure Air Temp Water Temp Dewpoint Dewpoint Depression Visibility Wind Speed Wind Dir Waves Ship Positions

Eems Servant

Last reported at 2016-Jun-26 11:08 UTC. Time now 2016-Jun-30 16:00 UTC.
Position N 46°54' W 005°02'.

Length 87 m; draft 4 m.

Type: Cargo ship. MMSI: 246236000.

Date/timePositionNaut miles runAvg speedWind from/ knotsBaromVisibWave heightAir tempDewpointWater temp
2016-Jun-26 11:08N 46°54' W 005°02'222 8.7
2016-Jun-25 09:32N 50°35' W 005°31'8 8.0
2016-Jun-25 08:33N 50°40' W 005°22'8 7.6
2016-Jun-25 07:34N 50°45' W 005°12'8 7.5
2016-Jun-25 06:33N 50°50' W 005°03'8 7.7
2016-Jun-25 05:34N 50°55' W 004°54'8 8.0
2016-Jun-25 04:34N 50°60' W 004°44'8 8.4
2016-Jun-25 03:34N 51°05' W 004°34'6310.5
2016-Jun-24 21:33N 51°30' W 003°01'4 0.3
2016-Jun-24 09:12N 51°34' W 002°58'6 0.6
2016-Jun-23 22:33N 51°28' W 002°53'1110.5
2016-Jun-23 21:33N 51°36' W 002°40'8 7.7
2016-Jun-23 20:29N 51°41' W 002°31'2 1.6
2016-Jun-23 19:08N 51°43' W 002°29'0 0.4
2016-Jun-23 18:33N 51°43' W 002°28'0 0.0
2016-Jun-23 17:32N 51°43' W 002°28'0 0.0
2016-Jun-23 16:32N 51°43' W 002°28'0 0.0
2016-Jun-23 15:32N 51°43' W 002°28'0 0.0
2016-Jun-23 14:32N 51°43' W 002°28'0 0.0
2016-Jun-23 13:32N 51°43' W 002°28'0 0.0
2016-Jun-23 12:32N 51°43' W 002°28'0 0.0
2016-Jun-23 11:32N 51°43' W 002°28'0 0.0
2016-Jun-23 10:32N 51°43' W 002°28'0 0.0
2016-Jun-23 09:08N 51°43' W 002°28'0 0.0
2016-Jun-23 08:29N 51°43' W 002°28'0 0.0
2016-Jun-23 07:32N 51°43' W 002°28'0 0.0
2016-Jun-23 02:29N 51°43' W 002°28'0 0.0
2016-Jun-23 01:29N 51°43' W 002°28'0 0.0
2016-Jun-23 00:32N 51°43' W 002°28'0 0.0
2016-Jun-22 23:32N 51°43' W 002°28'0 0.0
2016-Jun-22 22:32N 51°43' W 002°28'0 0.0
2016-Jun-22 21:32N 51°43' W 002°28'0 0.0
2016-Jun-22 20:32N 51°43' W 002°28'0 0.0
2016-Jun-22 19:32N 51°43' W 002°28'0 0.0
2016-Jun-22 18:32N 51°43' W 002°28'0 0.0
2016-Jun-22 17:33N 51°43' W 002°28'0 0.0
2016-Jun-22 16:26N 51°43' W 002°28'0 0.0
2016-Jun-22 15:32N 51°43' W 002°28'0 0.0
2016-Jun-22 14:29N 51°43' W 002°28'0 0.0
2016-Jun-22 13:32N 51°43' W 002°28'0 0.0
2016-Jun-22 12:32N 51°43' W 002°28'0 0.0
2016-Jun-22 11:29N 51°43' W 002°28'0 0.0
2016-Jun-22 10:32N 51°43' W 002°28'0 0.0
2016-Jun-22 09:32N 51°43' W 002°28'0 0.0
2016-Jun-22 08:32N 51°43' W 002°28'0 0.0
2016-Jun-22 07:32N 51°43' W 002°28'0 0.0
2016-Jun-22 06:32N 51°43' W 002°28'0 0.0
2016-Jun-22 05:32N 51°43' W 002°28'0 0.0
2016-Jun-22 04:32N 51°43' W 002°28'0 0.0
2016-Jun-22 03:32N 51°43' W 002°28'0 0.0
2016-Jun-22 02:32N 51°43' W 002°28'0 0.0
2016-Jun-22 01:32N 51°43' W 002°28'0 0.0
2016-Jun-22 00:32N 51°43' W 002°28'0 0.0
2016-Jun-21 23:23N 51°43' W 002°28'0 0.0
2016-Jun-21 22:32N 51°43' W 002°28'0 0.0
2016-Jun-21 21:32N 51°43' W 002°28'0 0.0
2016-Jun-21 20:30N 51°43' W 002°28'0 0.0
2016-Jun-21 19:32N 51°43' W 002°28'0 0.0
2016-Jun-21 18:32N 51°43' W 002°28'0 0.0
2016-Jun-21 17:32N 51°43' W 002°28'0 0.0
2016-Jun-21 16:32N 51°43' W 002°28'0 0.0
2016-Jun-21 15:32N 51°43' W 002°28'0 0.0
2016-Jun-21 14:32N 51°43' W 002°28'0 0.0
2016-Jun-21 13:32N 51°43' W 002°28'0 0.0
2016-Jun-21 12:32N 51°43' W 002°29'0 0.0
2016-Jun-21 11:32N 51°43' W 002°28'0 0.0
2016-Jun-21 10:32N 51°43' W 002°29'0 0.0
2016-Jun-21 09:32N 51°43' W 002°28'0 0.0
2016-Jun-21 08:32N 51°43' W 002°28'0 0.0
2016-Jun-21 07:32N 51°43' W 002°28'0 0.0
2016-Jun-21 04:32N 51°43' W 002°28'0 0.0
2016-Jun-21 03:32N 51°43' W 002°28'0 0.0
2016-Jun-21 02:32N 51°43' W 002°28'0 0.0
2016-Jun-21 01:32N 51°43' W 002°28'0 0.0
2016-Jun-21 00:32N 51°43' W 002°28'0 0.0
2016-Jun-20 23:32N 51°43' W 002°28'0 0.0
2016-Jun-20 22:32N 51°43' W 002°28'0 0.0
2016-Jun-20 21:32N 51°43' W 002°28'0 0.0
2016-Jun-20 20:32N 51°43' W 002°28'0 0.0
2016-Jun-20 19:32N 51°43' W 002°28'0 0.0
2016-Jun-20 18:32N 51°43' W 002°28'0 0.0
2016-Jun-20 17:32N 51°43' W 002°28'0 0.0
2016-Jun-20 16:29N 51°43' W 002°28'0 0.0
2016-Jun-20 15:32N 51°43' W 002°28'0 0.0
2016-Jun-20 14:32N 51°43' W 002°28'0 0.0
2016-Jun-20 13:32N 51°43' W 002°28'0 0.0
2016-Jun-20 12:32N 51°43' W 002°28'0 0.0
2016-Jun-20 11:32N 51°43' W 002°28'0 0.0
2016-Jun-20 10:32N 51°43' W 002°28'0 0.0
2016-Jun-20 09:32N 51°43' W 002°28'0 0.0
2016-Jun-20 08:32N 51°43' W 002°28'0 0.0
2016-Jun-20 07:32N 51°43' W 002°28'0 0.0
2016-Jun-20 06:32N 51°43' W 002°28'0 0.0
2016-Jun-20 05:32N 51°43' W 002°28'0 0.0
2016-Jun-20 04:32N 51°43' W 002°28'0 0.0
2016-Jun-20 03:32N 51°43' W 002°28'0 0.0
2016-Jun-20 02:32N 51°43' W 002°28'0 0.0
2016-Jun-20 01:32N 51°43' W 002°28'0 0.0
2016-Jun-20 00:32N 51°43' W 002°28'0 0.0
2016-Jun-19 23:29N 51°43' W 002°28'0 0.0
2016-Jun-19 22:32N 51°43' W 002°28'0 0.0
2016-Jun-19 21:32N 51°43' W 002°28'0 0.0
2016-Jun-19 20:32N 51°43' W 002°28'0 0.0
2016-Jun-19 19:32N 51°43' W 002°28'0 0.0
2016-Jun-19 18:32N 51°43' W 002°28'0 0.0
2016-Jun-19 17:32N 51°43' W 002°28'0 0.0
2016-Jun-19 16:32N 51°43' W 002°28'0 0.0
2016-Jun-19 15:32N 51°43' W 002°28'0 0.0
2016-Jun-19 14:32N 51°43' W 002°28'0 0.0
2016-Jun-19 13:32N 51°43' W 002°28'0 0.0
2016-Jun-19 12:32N 51°43' W 002°28'0 0.0
2016-Jun-19 11:32N 51°43' W 002°28'0 0.0
2016-Jun-19 10:32N 51°43' W 002°28'0 0.0
2016-Jun-19 09:32N 51°43' W 002°28'0 0.0
2016-Jun-19 08:32N 51°43' W 002°28'0 0.0
2016-Jun-19 07:32N 51°43' W 002°28'0 0.4
2016-Jun-19 06:26N 51°43' W 002°29'7 7.5
2016-Jun-19 05:33N 51°39' W 002°37'1110.9
2016-Jun-19 04:33N 51°30' W 002°47'70 6.4
2016-Jun-18 17:34N 51°05' W 004°32'7 6.7
2016-Jun-18 16:29N 51°00' W 004°41'7 6.8
2016-Jun-18 15:28N 50°56' W 004°49'6 6.8
2016-Jun-18 14:33N 50°52' W 004°56'7 6.7
2016-Jun-18 13:33N 50°47' W 005°04'7 7.2
2016-Jun-18 12:33N 50°42' W 005°13'7 7.4
2016-Jun-18 11:33N 50°38' W 005°22'67 3.5
2016-Jun-17 16:07N 50°06' W 003°49'4 7.9
2016-Jun-17 15:33N 50°07' W 003°42'8 8.2
2016-Jun-17 14:33N 50°08' W 003°29'9 8.9
2016-Jun-17 13:33N 50°10' W 003°16'10 9.7
2016-Jun-17 12:33N 50°12' W 003°01'106 8.8
2016-Jun-17 00:30N 50°30' W 000°18'1010.4
2016-Jun-16 23:33N 50°32' W 000°02'1010.0
2016-Jun-16 22:33N 50°35' E 000°12'46 8.9
2016-Jun-16 17:27N 50°58' E 001°15'1011.1
2016-Jun-16 16:33N 51°04' E 001°27'1211.5
2016-Jun-16 15:33N 51°12' E 001°41'1010.3
2016-Jun-16 14:33N 51°20' E 001°51'9 9.2
2016-Jun-16 13:33N 51°27' E 001°59'9 8.6
2016-Jun-16 12:33N 51°34' E 002°08'  
Track history (hours):
 
Tides and Currents Weather Stations Pressure Air Temp Water Temp Dewpoint Dewpoint Depression Visibility Wind Speed Wind Dir Waves Ship Positions

Eems Servant

Last reported at 2016-Jun-26 11:08 UTC. Time now 2016-Jun-30 16:00 UTC.
Position N 46°54' W 005°02'.

Length 87 m; draft 4 m.

Type: Cargo ship. MMSI: 246236000.

Date/timePositionNaut miles runAvg speedWind from/ knotsBaromVisibWave heightAir tempDewpointWater temp
2016-Jun-26 11:08N 46°54' W 005°02'222 8.7
2016-Jun-25 09:32N 50°35' W 005°31'8 8.0
2016-Jun-25 08:33N 50°40' W 005°22'8 7.6
2016-Jun-25 07:34N 50°45' W 005°12'8 7.5
2016-Jun-25 06:33N 50°50' W 005°03'8 7.7
2016-Jun-25 05:34N 50°55' W 004°54'8 8.0
2016-Jun-25 04:34N 50°60' W 004°44'8 8.4
2016-Jun-25 03:34N 51°05' W 004°34'6310.5
2016-Jun-24 21:33N 51°30' W 003°01'4 0.3
2016-Jun-24 09:12N 51°34' W 002°58'6 0.6
2016-Jun-23 22:33N 51°28' W 002°53'1110.5
2016-Jun-23 21:33N 51°36' W 002°40'8 7.7
2016-Jun-23 20:29N 51°41' W 002°31'2 1.6
2016-Jun-23 19:08N 51°43' W 002°29'0 0.4
2016-Jun-23 18:33N 51°43' W 002°28'0 0.0
2016-Jun-23 17:32N 51°43' W 002°28'0 0.0
2016-Jun-23 16:32N 51°43' W 002°28'0 0.0
2016-Jun-23 15:32N 51°43' W 002°28'0 0.0
2016-Jun-23 14:32N 51°43' W 002°28'0 0.0
2016-Jun-23 13:32N 51°43' W 002°28'0 0.0
2016-Jun-23 12:32N 51°43' W 002°28'0 0.0
2016-Jun-23 11:32N 51°43' W 002°28'0 0.0
2016-Jun-23 10:32N 51°43' W 002°28'0 0.0
2016-Jun-23 09:08N 51°43' W 002°28'0 0.0
2016-Jun-23 08:29N 51°43' W 002°28'0 0.0
2016-Jun-23 07:32N 51°43' W 002°28'0 0.0
2016-Jun-23 02:29N 51°43' W 002°28'0 0.0
2016-Jun-23 01:29N 51°43' W 002°28'0 0.0
2016-Jun-23 00:32N 51°43' W 002°28'0 0.0
2016-Jun-22 23:32N 51°43' W 002°28'0 0.0
2016-Jun-22 22:32N 51°43' W 002°28'0 0.0
2016-Jun-22 21:32N 51°43' W 002°28'0 0.0
2016-Jun-22 20:32N 51°43' W 002°28'0 0.0
2016-Jun-22 19:32N 51°43' W 002°28'0 0.0
2016-Jun-22 18:32N 51°43' W 002°28'0 0.0
2016-Jun-22 17:33N 51°43' W 002°28'0 0.0
2016-Jun-22 16:26N 51°43' W 002°28'0 0.0
2016-Jun-22 15:32N 51°43' W 002°28'0 0.0
2016-Jun-22 14:29N 51°43' W 002°28'0 0.0
2016-Jun-22 13:32N 51°43' W 002°28'0 0.0
2016-Jun-22 12:32N 51°43' W 002°28'0 0.0
2016-Jun-22 11:29N 51°43' W 002°28'0 0.0
2016-Jun-22 10:32N 51°43' W 002°28'0 0.0
2016-Jun-22 09:32N 51°43' W 002°28'0 0.0
2016-Jun-22 08:32N 51°43' W 002°28'0 0.0
2016-Jun-22 07:32N 51°43' W 002°28'0 0.0
2016-Jun-22 06:32N 51°43' W 002°28'0 0.0
2016-Jun-22 05:32N 51°43' W 002°28'0 0.0
2016-Jun-22 04:32N 51°43' W 002°28'0 0.0
2016-Jun-22 03:32N 51°43' W 002°28'0 0.0
2016-Jun-22 02:32N 51°43' W 002°28'0 0.0
2016-Jun-22 01:32N 51°43' W 002°28'0 0.0
2016-Jun-22 00:32N 51°43' W 002°28'0 0.0
2016-Jun-21 23:23N 51°43' W 002°28'0 0.0
2016-Jun-21 22:32N 51°43' W 002°28'0 0.0
2016-Jun-21 21:32N 51°43' W 002°28'0 0.0
2016-Jun-21 20:30N 51°43' W 002°28'0 0.0
2016-Jun-21 19:32N 51°43' W 002°28'0 0.0
2016-Jun-21 18:32N 51°43' W 002°28'0 0.0
2016-Jun-21 17:32N 51°43' W 002°28'0 0.0
2016-Jun-21 16:32N 51°43' W 002°28'0 0.0
2016-Jun-21 15:32N 51°43' W 002°28'0 0.0
2016-Jun-21 14:32N 51°43' W 002°28'0 0.0
2016-Jun-21 13:32N 51°43' W 002°28'0 0.0
2016-Jun-21 12:32N 51°43' W 002°29'0 0.0
2016-Jun-21 11:32N 51°43' W 002°28'0 0.0
2016-Jun-21 10:32N 51°43' W 002°29'0 0.0
2016-Jun-21 09:32N 51°43' W 002°28'0 0.0
2016-Jun-21 08:32N 51°43' W 002°28'0 0.0
2016-Jun-21 07:32N 51°43' W 002°28'0 0.0
2016-Jun-21 04:32N 51°43' W 002°28'0 0.0
2016-Jun-21 03:32N 51°43' W 002°28'0 0.0
2016-Jun-21 02:32N 51°43' W 002°28'0 0.0
2016-Jun-21 01:32N 51°43' W 002°28'0 0.0
2016-Jun-21 00:32N 51°43' W 002°28'0 0.0
2016-Jun-20 23:32N 51°43' W 002°28'0 0.0
2016-Jun-20 22:32N 51°43' W 002°28'0 0.0
2016-Jun-20 21:32N 51°43' W 002°28'0 0.0
2016-Jun-20 20:32N 51°43' W 002°28'0 0.0
2016-Jun-20 19:32N 51°43' W 002°28'0 0.0
2016-Jun-20 18:32N 51°43' W 002°28'0 0.0
2016-Jun-20 17:32N 51°43' W 002°28'0 0.0
2016-Jun-20 16:29N 51°43' W 002°28'0 0.0
2016-Jun-20 15:32N 51°43' W 002°28'0 0.0
2016-Jun-20 14:32N 51°43' W 002°28'0 0.0
2016-Jun-20 13:32N 51°43' W 002°28'0 0.0
2016-Jun-20 12:32N 51°43' W 002°28'0 0.0
2016-Jun-20 11:32N 51°43' W 002°28'0 0.0
2016-Jun-20 10:32N 51°43' W 002°28'0 0.0
2016-Jun-20 09:32N 51°43' W 002°28'0 0.0
2016-Jun-20 08:32N 51°43' W 002°28'0 0.0
2016-Jun-20 07:32N 51°43' W 002°28'0 0.0
2016-Jun-20 06:32N 51°43' W 002°28'0 0.0
2016-Jun-20 05:32N 51°43' W 002°28'0 0.0
2016-Jun-20 04:32N 51°43' W 002°28'0 0.0
2016-Jun-20 03:32N 51°43' W 002°28'0 0.0
2016-Jun-20 02:32N 51°43' W 002°28'0 0.0
2016-Jun-20 01:32N 51°43' W 002°28'0 0.0
2016-Jun-20 00:32N 51°43' W 002°28'0 0.0
2016-Jun-19 23:29N 51°43' W 002°28'0 0.0
2016-Jun-19 22:32N 51°43' W 002°28'0 0.0
2016-Jun-19 21:32N 51°43' W 002°28'0 0.0
2016-Jun-19 20:32N 51°43' W 002°28'0 0.0
2016-Jun-19 19:32N 51°43' W 002°28'0 0.0
2016-Jun-19 18:32N 51°43' W 002°28'0 0.0
2016-Jun-19 17:32N 51°43' W 002°28'0 0.0
2016-Jun-19 16:32N 51°43' W 002°28'0 0.0
2016-Jun-19 15:32N 51°43' W 002°28'0 0.0
2016-Jun-19 14:32N 51°43' W 002°28'0 0.0
2016-Jun-19 13:32N 51°43' W 002°28'0 0.0
2016-Jun-19 12:32N 51°43' W 002°28'0 0.0
2016-Jun-19 11:32N 51°43' W 002°28'0 0.0
2016-Jun-19 10:32N 51°43' W 002°28'0 0.0
2016-Jun-19 09:32N 51°43' W 002°28'0 0.0
2016-Jun-19 08:32N 51°43' W 002°28'0 0.0
2016-Jun-19 07:32N 51°43' W 002°28'0 0.4
2016-Jun-19 06:26N 51°43' W 002°29'7 7.5
2016-Jun-19 05:33N 51°39' W 002°37'1110.9
2016-Jun-19 04:33N 51°30' W 002°47'70 6.4
2016-Jun-18 17:34N 51°05' W 004°32'7 6.7
2016-Jun-18 16:29N 51°00' W 004°41'7 6.8
2016-Jun-18 15:28N 50°56' W 004°49'6 6.8
2016-Jun-18 14:33N 50°52' W 004°56'7 6.7
2016-Jun-18 13:33N 50°47' W 005°04'7 7.2
2016-Jun-18 12:33N 50°42' W 005°13'7 7.4
2016-Jun-18 11:33N 50°38' W 005°22'67 3.5
2016-Jun-17 16:07N 50°06' W 003°49'4 7.9
2016-Jun-17 15:33N 50°07' W 003°42'8 8.2
2016-Jun-17 14:33N 50°08' W 003°29'9 8.9
2016-Jun-17 13:33N 50°10' W 003°16'10 9.7
2016-Jun-17 12:33N 50°12' W 003°01'106 8.8
2016-Jun-17 00:30N 50°30' W 000°18'1010.4
2016-Jun-16 23:33N 50°32' W 000°02'1010.0
2016-Jun-16 22:33N 50°35' E 000°12'46 8.9
2016-Jun-16 17:27N 50°58' E 001°15'1011.1
2016-Jun-16 16:33N 51°04' E 001°27'1211.5
2016-Jun-16 15:33N 51°12' E 001°41'1010.3
2016-Jun-16 14:33N 51°20' E 001°51'9 9.2
2016-Jun-16 13:33N 51°27' E 001°59'9 8.6
2016-Jun-16 12:33N 51°34' E 002°08'  

Dump ship's entire track history